Lefkara — 3ETI6 — position and weather

sailwx.info

Track history (hours):
 
Tides and Currents Weather Stations Pressure Air Temp Water Temp Dewpoint Dewpoint Depression Visibility Wind Speed Wind Dir Waves Ship Positions

Lefkara

Last reported at 2018-Jun-25 13:30 UTC. Time now 2018-Jun-25 13:50 UTC.
Position N 40°38' W 074°04'.

Length 183 m; draft 8.8 m.

Type: Ship. MMSI: 370573000.

Date/timePositionNaut miles runAvg speedWind from/ knotsBaromVisibWave heightAir tempDewpointWater temp
2018-Jun-25 13:30N 40°38' W 074°04'0 0.0
2018-Jun-25 13:00N 40°38' W 074°04'0 0.1
2018-Jun-25 12:30N 40°38' W 074°04'0 0.4
2018-Jun-25 12:00N 40°38' W 074°04'0 0.0
2018-Jun-25 11:30N 40°38' W 074°04'0 0.0
2018-Jun-25 11:00N 40°38' W 074°04'0 0.0
2018-Jun-25 10:27N 40°38' W 074°04'0 0.2
2018-Jun-25 10:00N 40°38' W 074°04'0 0.2
2018-Jun-25 09:30N 40°38' W 074°04'0 0.1
2018-Jun-25 09:00N 40°38' W 074°04'0 0.0
2018-Jun-25 08:30N 40°38' W 074°04'0 0.0
2018-Jun-25 08:00N 40°38' W 074°04'0 0.2
2018-Jun-25 07:30N 40°38' W 074°04'0 0.0
2018-Jun-25 06:57N 40°38' W 074°04'0 0.0
2018-Jun-25 06:30N 40°38' W 074°04'0 0.0
2018-Jun-25 06:00N 40°38' W 074°04'0 0.0
2018-Jun-25 05:30N 40°38' W 074°04'0 0.0
2018-Jun-25 05:00N 40°38' W 074°04'0 0.1
2018-Jun-25 04:30N 40°38' W 074°04'2 3.8
2018-Jun-25 04:00N 40°36' W 074°03'5 9.7
2018-Jun-25 03:29N 40°32' W 074°01'510.4
2018-Jun-25 03:00N 40°29' W 073°55'5 7.7
2018-Jun-25 02:24N 40°29' W 074°01'11 0.4
2018-Jun-23 20:51N 40°36' W 074°12'2 5.0
2018-Jun-23 20:29N 40°38' W 074°12'2 4.4
2018-Jun-23 20:00N 40°39' W 074°10'3 6.8
2018-Jun-23 19:30N 40°39' W 074°05'1 2.8
2018-Jun-23 18:58N 40°38' W 074°04'0 0.2
2018-Jun-23 18:28N 40°38' W 074°04'0 0.1
2018-Jun-23 17:58N 40°38' W 074°04'0 0.1
2018-Jun-23 17:25N 40°38' W 074°04'0 0.0
2018-Jun-23 16:58N 40°38' W 074°04'0 0.0
2018-Jun-23 16:28N 40°38' W 074°04'0 0.0
2018-Jun-23 15:58N 40°38' W 074°04'0 0.1
2018-Jun-23 15:28N 40°38' W 074°04'0 0.0
2018-Jun-23 14:58N 40°38' W 074°04'0 0.0
2018-Jun-23 14:28N 40°38' W 074°04'0 0.0
2018-Jun-23 13:58N 40°38' W 074°04'0 0.0
2018-Jun-23 13:28N 40°38' W 074°04'0 0.0
2018-Jun-23 12:58N 40°38' W 074°04'0 0.0
2018-Jun-23 12:28N 40°38' W 074°04'0 0.0
2018-Jun-23 11:58N 40°38' W 074°04'0 0.1
2018-Jun-23 11:28N 40°38' W 074°04'0 0.5
2018-Jun-23 10:58N 40°38' W 074°04'0 0.1
2018-Jun-23 10:28N 40°38' W 074°04'0 0.0
2018-Jun-23 09:58N 40°38' W 074°04'0 0.0
2018-Jun-23 09:28N 40°38' W 074°04'0 0.0
2018-Jun-23 08:58N 40°38' W 074°04'0 0.0
2018-Jun-23 08:25N 40°38' W 074°04'0 0.0
2018-Jun-23 07:58N 40°38' W 074°04'0 0.1
2018-Jun-23 07:28N 40°38' W 074°04'0 0.2
2018-Jun-23 06:58N 40°38' W 074°04'0 0.1
2018-Jun-23 06:28N 40°38' W 074°04'0 0.1
2018-Jun-23 05:58N 40°38' W 074°04'0 0.1
2018-Jun-23 05:25N 40°38' W 074°04'0 0.0
2018-Jun-23 04:58N 40°38' W 074°04'0 0.1
2018-Jun-23 04:28N 40°38' W 074°04'0 0.0
2018-Jun-23 03:58N 40°38' W 074°04'0 0.1
2018-Jun-23 03:28N 40°38' W 074°04'0 0.0
2018-Jun-23 02:58N 40°38' W 074°04'0 0.0
2018-Jun-23 02:28N 40°38' W 074°04'0 0.0
2018-Jun-23 01:55N 40°38' W 074°04'0 0.0
2018-Jun-23 01:25N 40°38' W 074°04'0 0.0
2018-Jun-23 00:58N 40°38' W 074°04'0 0.0
2018-Jun-23 00:28N 40°38' W 074°04'0 0.0
2018-Jun-22 23:58N 40°38' W 074°04'0 0.1
2018-Jun-22 23:25N 40°38' W 074°04'0 0.4
2018-Jun-22 22:58N 40°38' W 074°04'0 0.2
2018-Jun-22 22:28N 40°38' W 074°04'0 0.0
2018-Jun-22 21:58N 40°38' W 074°04'0 0.0
2018-Jun-22 21:28N 40°38' W 074°04'0 0.0
2018-Jun-22 20:58N 40°38' W 074°04'0 0.0
2018-Jun-22 20:28N 40°38' W 074°04'0 0.0
2018-Jun-22 19:58N 40°38' W 074°04'0 0.0
2018-Jun-22 19:16N 40°38' W 074°04'0 0.1
2018-Jun-22 18:58N 40°38' W 074°04'0 0.0
2018-Jun-22 18:28N 40°38' W 074°04'0 0.1
2018-Jun-22 17:58N 40°38' W 074°04'0 0.0
2018-Jun-22 17:25N 40°38' W 074°04'0 0.3
2018-Jun-22 16:55N 40°38' W 074°04'0 0.2
2018-Jun-22 16:28N 40°38' W 074°04'0 0.1
2018-Jun-22 15:58N 40°38' W 074°04'0 0.1
2018-Jun-22 15:28N 40°38' W 074°04'0 0.0
2018-Jun-22 14:58N 40°38' W 074°04'0 0.0
2018-Jun-22 14:28N 40°38' W 074°04'0 0.1
2018-Jun-22 13:58N 40°38' W 074°04'0 0.0
2018-Jun-22 13:28N 40°38' W 074°04'0 0.0
2018-Jun-22 12:58N 40°38' W 074°04'0 0.0
2018-Jun-22 12:28N 40°38' W 074°04'0 0.1
2018-Jun-22 11:58N 40°38' W 074°04'0 0.0
2018-Jun-22 11:28N 40°38' W 074°04'0 0.0
2018-Jun-22 10:58N 40°38' W 074°04'0 0.1
2018-Jun-22 10:28N 40°38' W 074°04'0 0.4
2018-Jun-22 09:58N 40°38' W 074°04'0 0.1
2018-Jun-22 09:28N 40°38' W 074°04'0 0.1
2018-Jun-22 08:55N 40°38' W 074°04'0 0.0
2018-Jun-22 08:28N 40°38' W 074°04'0 0.0
2018-Jun-22 07:55N 40°38' W 074°04'0 0.0
2018-Jun-22 07:28N 40°38' W 074°04'0 0.1
2018-Jun-22 06:58N 40°38' W 074°04'0 0.0
2018-Jun-22 06:25N 40°38' W 074°04'0 0.0
2018-Jun-22 05:58N 40°38' W 074°04'0 0.1
2018-Jun-22 05:28N 40°38' W 074°04'0 0.2
2018-Jun-22 04:58N 40°38' W 074°04'0 0.2
2018-Jun-22 04:28N 40°38' W 074°04'0 0.0
2018-Jun-22 03:58N 40°38' W 074°04'0 0.0
2018-Jun-22 03:28N 40°38' W 074°04'0 0.1
2018-Jun-22 02:58N 40°38' W 074°04'0 0.0
2018-Jun-22 02:28N 40°38' W 074°04'0 0.0
2018-Jun-22 01:58N 40°38' W 074°04'0 0.0
2018-Jun-22 01:28N 40°38' W 074°04'0 0.0
2018-Jun-22 00:58N 40°38' W 074°04'0 0.3
2018-Jun-22 00:29N 40°38' W 074°04'2 4.7
2018-Jun-22 00:00N 40°36' W 074°02'510.8
2018-Jun-21 23:30N 40°31' W 073°59'12 0.5
2018-Jun-20 21:49N 40°37' W 074°12'1 4.3
2018-Jun-20 21:30N 40°39' W 074°11'3 6.2
2018-Jun-20 21:00N 40°39' W 074°07'2 3.1
2018-Jun-20 20:30N 40°39' W 074°05'0 0.0
2018-Jun-20 18:55N 40°39' W 074°05'0 0.0
2018-Jun-20 18:25N 40°39' W 074°05'0 0.0
2018-Jun-20 18:01N 40°39' W 074°05'0 0.0
2018-Jun-20 17:31N 40°39' W 074°05'0 0.0
2018-Jun-20 11:07N 40°39' W 074°05'0 0.0
2018-Jun-20 02:24N 40°39' W 074°05'0 0.0
2018-Jun-20 01:59N 40°39' W 074°05'0 0.8
2018-Jun-20 01:31N 40°39' W 074°06'3 5.1
2018-Jun-20 01:00N 40°39' W 074°09'3 5.1
2018-Jun-20 00:30N 40°38' W 074°12'0 0.0
2018-Jun-19 03:48N 40°38' W 074°12'1 4.6
2018-Jun-19 03:30N 40°39' W 074°11'3 7.0
2018-Jun-19 03:00N 40°39' W 074°06'3 5.2
2018-Jun-19 02:30N 40°39' W 074°03'0 0.0
2018-Jun-19 01:58N 40°39' W 074°03'0 0.1
2018-Jun-19 01:28N 40°39' W 074°03'0 0.4
2018-Jun-19 00:58N 40°39' W 074°03'0 0.2
2018-Jun-19 00:28N 40°39' W 074°03'0 0.0
2018-Jun-18 23:58N 40°39' W 074°03'0 0.1
2018-Jun-18 23:28N 40°39' W 074°03'0 0.1
2018-Jun-18 22:58N 40°39' W 074°03'0 0.0
2018-Jun-18 22:28N 40°39' W 074°03'0 0.0
2018-Jun-18 21:58N 40°39' W 074°03'0 0.0
2018-Jun-18 21:25N 40°39' W 074°03'0 0.0
2018-Jun-18 20:58N 40°39' W 074°03'0 0.1
2018-Jun-18 20:28N 40°39' W 074°03'0 0.3
2018-Jun-18 19:58N 40°39' W 074°03'0 0.3
2018-Jun-18 19:28N 40°39' W 074°03'0 0.1
2018-Jun-18 18:58N 40°39' W 074°03'0 0.0
2018-Jun-18 18:28N 40°39' W 074°03'0 0.0
2018-Jun-18 17:58N 40°39' W 074°03'0 0.0
2018-Jun-18 17:28N 40°39' W 074°03'0 0.0
2018-Jun-18 16:58N 40°39' W 074°03'0 0.0
2018-Jun-18 16:28N 40°39' W 074°03'0 0.0
2018-Jun-18 15:58N 40°39' W 074°03'0 0.0
2018-Jun-18 15:28N 40°39' W 074°03'0 0.1
2018-Jun-18 14:58N 40°39' W 074°03'0 0.1
2018-Jun-18 14:28N 40°39' W 074°03'0 0.1
2018-Jun-18 13:39N 40°39' W 074°03'0 0.1
2018-Jun-18 13:30N 40°39' W 074°03'0 0.2
2018-Jun-18 13:00N 40°39' W 074°03'0 0.2
2018-Jun-18 12:30N 40°39' W 074°03'0 0.0
2018-Jun-18 12:00N 40°39' W 074°03'0 0.1
2018-Jun-18 11:24N 40°39' W 074°03'0 0.0
2018-Jun-18 11:00N 40°39' W 074°03'0 0.0
2018-Jun-18 10:30N 40°39' W 074°03'0 0.0
2018-Jun-18 10:00N 40°39' W 074°03'0 0.0
2018-Jun-18 09:30N 40°39' W 074°03'0 0.0
2018-Jun-18 09:00N 40°39' W 074°03'0 0.0
2018-Jun-18 08:30N 40°39' W 074°03'0 0.1
2018-Jun-18 08:00N 40°39' W 074°03'0 0.0
2018-Jun-18 07:30N 40°39' W 074°03'0 0.1
2018-Jun-18 07:00N 40°39' W 074°03'0 0.3
2018-Jun-18 06:30N 40°39' W 074°03'0 0.1
2018-Jun-18 06:00N 40°39' W 074°03'0 0.0
2018-Jun-18 01:40N 40°39' W 074°03'0 0.0
2018-Jun-18 01:28N 40°39' W 074°03'0 0.0
2018-Jun-18 00:58N 40°39' W 074°03'0 0.1
2018-Jun-18 00:26N 40°39' W 074°03'0 0.2
2018-Jun-17 23:59N 40°39' W 074°03'0 0.3
2018-Jun-17 23:29N 40°39' W 074°03'0 0.0
2018-Jun-17 22:12N 40°39' W 074°03'0 0.2
2018-Jun-17 22:00N 40°39' W 074°03'0 0.0
2018-Jun-17 21:30N 40°39' W 074°03'0 0.0
2018-Jun-17 20:55N 40°39' W 074°03'0 0.0
2018-Jun-17 20:22N 40°39' W 074°03'0 0.1
2018-Jun-17 16:46N 40°39' W 074°03'0 0.2
2018-Jun-17 16:30N 40°39' W 074°03'2910.1
2018-Jun-17 13:39N 40°19' W 073°35'212.6
2018-Jun-17 13:30N 40°18' W 073°33'612.6
2018-Jun-17 13:01N 40°14' W 073°26'812.7
2018-Jun-17 12:25N 40°10' W 073°18'512.6
2018-Jun-17 12:00N 40°07' W 073°13'  
Track history (hours):
 
Tides and Currents Weather Stations Pressure Air Temp Water Temp Dewpoint Dewpoint Depression Visibility Wind Speed Wind Dir Waves Ship Positions

Lefkara

Last reported at 2018-Jun-25 13:30 UTC. Time now 2018-Jun-25 13:50 UTC.
Position N 40°38' W 074°04'.

Length 183 m; draft 8.8 m.

Type: Ship. MMSI: 370573000.

Date/timePositionNaut miles runAvg speedWind from/ knotsBaromVisibWave heightAir tempDewpointWater temp
2018-Jun-25 13:30N 40°38' W 074°04'0 0.0
2018-Jun-25 13:00N 40°38' W 074°04'0 0.1
2018-Jun-25 12:30N 40°38' W 074°04'0 0.4
2018-Jun-25 12:00N 40°38' W 074°04'0 0.0
2018-Jun-25 11:30N 40°38' W 074°04'0 0.0
2018-Jun-25 11:00N 40°38' W 074°04'0 0.0
2018-Jun-25 10:27N 40°38' W 074°04'0 0.2
2018-Jun-25 10:00N 40°38' W 074°04'0 0.2
2018-Jun-25 09:30N 40°38' W 074°04'0 0.1
2018-Jun-25 09:00N 40°38' W 074°04'0 0.0
2018-Jun-25 08:30N 40°38' W 074°04'0 0.0
2018-Jun-25 08:00N 40°38' W 074°04'0 0.2
2018-Jun-25 07:30N 40°38' W 074°04'0 0.0
2018-Jun-25 06:57N 40°38' W 074°04'0 0.0
2018-Jun-25 06:30N 40°38' W 074°04'0 0.0
2018-Jun-25 06:00N 40°38' W 074°04'0 0.0
2018-Jun-25 05:30N 40°38' W 074°04'0 0.0
2018-Jun-25 05:00N 40°38' W 074°04'0 0.1
2018-Jun-25 04:30N 40°38' W 074°04'2 3.8
2018-Jun-25 04:00N 40°36' W 074°03'5 9.7
2018-Jun-25 03:29N 40°32' W 074°01'510.4
2018-Jun-25 03:00N 40°29' W 073°55'5 7.7
2018-Jun-25 02:24N 40°29' W 074°01'11 0.4
2018-Jun-23 20:51N 40°36' W 074°12'2 5.0
2018-Jun-23 20:29N 40°38' W 074°12'2 4.4
2018-Jun-23 20:00N 40°39' W 074°10'3 6.8
2018-Jun-23 19:30N 40°39' W 074°05'1 2.8
2018-Jun-23 18:58N 40°38' W 074°04'0 0.2
2018-Jun-23 18:28N 40°38' W 074°04'0 0.1
2018-Jun-23 17:58N 40°38' W 074°04'0 0.1
2018-Jun-23 17:25N 40°38' W 074°04'0 0.0
2018-Jun-23 16:58N 40°38' W 074°04'0 0.0
2018-Jun-23 16:28N 40°38' W 074°04'0 0.0
2018-Jun-23 15:58N 40°38' W 074°04'0 0.1
2018-Jun-23 15:28N 40°38' W 074°04'0 0.0
2018-Jun-23 14:58N 40°38' W 074°04'0 0.0
2018-Jun-23 14:28N 40°38' W 074°04'0 0.0
2018-Jun-23 13:58N 40°38' W 074°04'0 0.0
2018-Jun-23 13:28N 40°38' W 074°04'0 0.0
2018-Jun-23 12:58N 40°38' W 074°04'0 0.0
2018-Jun-23 12:28N 40°38' W 074°04'0 0.0
2018-Jun-23 11:58N 40°38' W 074°04'0 0.1
2018-Jun-23 11:28N 40°38' W 074°04'0 0.5
2018-Jun-23 10:58N 40°38' W 074°04'0 0.1
2018-Jun-23 10:28N 40°38' W 074°04'0 0.0
2018-Jun-23 09:58N 40°38' W 074°04'0 0.0
2018-Jun-23 09:28N 40°38' W 074°04'0 0.0
2018-Jun-23 08:58N 40°38' W 074°04'0 0.0
2018-Jun-23 08:25N 40°38' W 074°04'0 0.0
2018-Jun-23 07:58N 40°38' W 074°04'0 0.1
2018-Jun-23 07:28N 40°38' W 074°04'0 0.2
2018-Jun-23 06:58N 40°38' W 074°04'0 0.1
2018-Jun-23 06:28N 40°38' W 074°04'0 0.1
2018-Jun-23 05:58N 40°38' W 074°04'0 0.1
2018-Jun-23 05:25N 40°38' W 074°04'0 0.0
2018-Jun-23 04:58N 40°38' W 074°04'0 0.1
2018-Jun-23 04:28N 40°38' W 074°04'0 0.0
2018-Jun-23 03:58N 40°38' W 074°04'0 0.1
2018-Jun-23 03:28N 40°38' W 074°04'0 0.0
2018-Jun-23 02:58N 40°38' W 074°04'0 0.0
2018-Jun-23 02:28N 40°38' W 074°04'0 0.0
2018-Jun-23 01:55N 40°38' W 074°04'0 0.0
2018-Jun-23 01:25N 40°38' W 074°04'0 0.0
2018-Jun-23 00:58N 40°38' W 074°04'0 0.0
2018-Jun-23 00:28N 40°38' W 074°04'0 0.0
2018-Jun-22 23:58N 40°38' W 074°04'0 0.1
2018-Jun-22 23:25N 40°38' W 074°04'0 0.4
2018-Jun-22 22:58N 40°38' W 074°04'0 0.2
2018-Jun-22 22:28N 40°38' W 074°04'0 0.0
2018-Jun-22 21:58N 40°38' W 074°04'0 0.0
2018-Jun-22 21:28N 40°38' W 074°04'0 0.0
2018-Jun-22 20:58N 40°38' W 074°04'0 0.0
2018-Jun-22 20:28N 40°38' W 074°04'0 0.0
2018-Jun-22 19:58N 40°38' W 074°04'0 0.0
2018-Jun-22 19:16N 40°38' W 074°04'0 0.1
2018-Jun-22 18:58N 40°38' W 074°04'0 0.0
2018-Jun-22 18:28N 40°38' W 074°04'0 0.1
2018-Jun-22 17:58N 40°38' W 074°04'0 0.0
2018-Jun-22 17:25N 40°38' W 074°04'0 0.3
2018-Jun-22 16:55N 40°38' W 074°04'0 0.2
2018-Jun-22 16:28N 40°38' W 074°04'0 0.1
2018-Jun-22 15:58N 40°38' W 074°04'0 0.1
2018-Jun-22 15:28N 40°38' W 074°04'0 0.0
2018-Jun-22 14:58N 40°38' W 074°04'0 0.0
2018-Jun-22 14:28N 40°38' W 074°04'0 0.1
2018-Jun-22 13:58N 40°38' W 074°04'0 0.0
2018-Jun-22 13:28N 40°38' W 074°04'0 0.0
2018-Jun-22 12:58N 40°38' W 074°04'0 0.0
2018-Jun-22 12:28N 40°38' W 074°04'0 0.1
2018-Jun-22 11:58N 40°38' W 074°04'0 0.0
2018-Jun-22 11:28N 40°38' W 074°04'0 0.0
2018-Jun-22 10:58N 40°38' W 074°04'0 0.1
2018-Jun-22 10:28N 40°38' W 074°04'0 0.4
2018-Jun-22 09:58N 40°38' W 074°04'0 0.1
2018-Jun-22 09:28N 40°38' W 074°04'0 0.1
2018-Jun-22 08:55N 40°38' W 074°04'0 0.0
2018-Jun-22 08:28N 40°38' W 074°04'0 0.0
2018-Jun-22 07:55N 40°38' W 074°04'0 0.0
2018-Jun-22 07:28N 40°38' W 074°04'0 0.1
2018-Jun-22 06:58N 40°38' W 074°04'0 0.0
2018-Jun-22 06:25N 40°38' W 074°04'0 0.0
2018-Jun-22 05:58N 40°38' W 074°04'0 0.1
2018-Jun-22 05:28N 40°38' W 074°04'0 0.2
2018-Jun-22 04:58N 40°38' W 074°04'0 0.2
2018-Jun-22 04:28N 40°38' W 074°04'0 0.0
2018-Jun-22 03:58N 40°38' W 074°04'0 0.0
2018-Jun-22 03:28N 40°38' W 074°04'0 0.1
2018-Jun-22 02:58N 40°38' W 074°04'0 0.0
2018-Jun-22 02:28N 40°38' W 074°04'0 0.0
2018-Jun-22 01:58N 40°38' W 074°04'0 0.0
2018-Jun-22 01:28N 40°38' W 074°04'0 0.0
2018-Jun-22 00:58N 40°38' W 074°04'0 0.3
2018-Jun-22 00:29N 40°38' W 074°04'2 4.7
2018-Jun-22 00:00N 40°36' W 074°02'510.8
2018-Jun-21 23:30N 40°31' W 073°59'12 0.5
2018-Jun-20 21:49N 40°37' W 074°12'1 4.3
2018-Jun-20 21:30N 40°39' W 074°11'3 6.2
2018-Jun-20 21:00N 40°39' W 074°07'2 3.1
2018-Jun-20 20:30N 40°39' W 074°05'0 0.0
2018-Jun-20 18:55N 40°39' W 074°05'0 0.0
2018-Jun-20 18:25N 40°39' W 074°05'0 0.0
2018-Jun-20 18:01N 40°39' W 074°05'0 0.0
2018-Jun-20 17:31N 40°39' W 074°05'0 0.0
2018-Jun-20 11:07N 40°39' W 074°05'0 0.0
2018-Jun-20 02:24N 40°39' W 074°05'0 0.0
2018-Jun-20 01:59N 40°39' W 074°05'0 0.8
2018-Jun-20 01:31N 40°39' W 074°06'3 5.1
2018-Jun-20 01:00N 40°39' W 074°09'3 5.1
2018-Jun-20 00:30N 40°38' W 074°12'0 0.0
2018-Jun-19 03:48N 40°38' W 074°12'1 4.6
2018-Jun-19 03:30N 40°39' W 074°11'3 7.0
2018-Jun-19 03:00N 40°39' W 074°06'3 5.2
2018-Jun-19 02:30N 40°39' W 074°03'0 0.0
2018-Jun-19 01:58N 40°39' W 074°03'0 0.1
2018-Jun-19 01:28N 40°39' W 074°03'0 0.4
2018-Jun-19 00:58N 40°39' W 074°03'0 0.2
2018-Jun-19 00:28N 40°39' W 074°03'0 0.0
2018-Jun-18 23:58N 40°39' W 074°03'0 0.1
2018-Jun-18 23:28N 40°39' W 074°03'0 0.1
2018-Jun-18 22:58N 40°39' W 074°03'0 0.0
2018-Jun-18 22:28N 40°39' W 074°03'0 0.0
2018-Jun-18 21:58N 40°39' W 074°03'0 0.0
2018-Jun-18 21:25N 40°39' W 074°03'0 0.0
2018-Jun-18 20:58N 40°39' W 074°03'0 0.1
2018-Jun-18 20:28N 40°39' W 074°03'0 0.3
2018-Jun-18 19:58N 40°39' W 074°03'0 0.3
2018-Jun-18 19:28N 40°39' W 074°03'0 0.1
2018-Jun-18 18:58N 40°39' W 074°03'0 0.0
2018-Jun-18 18:28N 40°39' W 074°03'0 0.0
2018-Jun-18 17:58N 40°39' W 074°03'0 0.0
2018-Jun-18 17:28N 40°39' W 074°03'0 0.0
2018-Jun-18 16:58N 40°39' W 074°03'0 0.0
2018-Jun-18 16:28N 40°39' W 074°03'0 0.0
2018-Jun-18 15:58N 40°39' W 074°03'0 0.0
2018-Jun-18 15:28N 40°39' W 074°03'0 0.1
2018-Jun-18 14:58N 40°39' W 074°03'0 0.1
2018-Jun-18 14:28N 40°39' W 074°03'0 0.1
2018-Jun-18 13:39N 40°39' W 074°03'0 0.1
2018-Jun-18 13:30N 40°39' W 074°03'0 0.2
2018-Jun-18 13:00N 40°39' W 074°03'0 0.2
2018-Jun-18 12:30N 40°39' W 074°03'0 0.0
2018-Jun-18 12:00N 40°39' W 074°03'0 0.1
2018-Jun-18 11:24N 40°39' W 074°03'0 0.0
2018-Jun-18 11:00N 40°39' W 074°03'0 0.0
2018-Jun-18 10:30N 40°39' W 074°03'0 0.0
2018-Jun-18 10:00N 40°39' W 074°03'0 0.0
2018-Jun-18 09:30N 40°39' W 074°03'0 0.0
2018-Jun-18 09:00N 40°39' W 074°03'0 0.0
2018-Jun-18 08:30N 40°39' W 074°03'0 0.1
2018-Jun-18 08:00N 40°39' W 074°03'0 0.0
2018-Jun-18 07:30N 40°39' W 074°03'0 0.1
2018-Jun-18 07:00N 40°39' W 074°03'0 0.3
2018-Jun-18 06:30N 40°39' W 074°03'0 0.1
2018-Jun-18 06:00N 40°39' W 074°03'0 0.0
2018-Jun-18 01:40N 40°39' W 074°03'0 0.0
2018-Jun-18 01:28N 40°39' W 074°03'0 0.0
2018-Jun-18 00:58N 40°39' W 074°03'0 0.1
2018-Jun-18 00:26N 40°39' W 074°03'0 0.2
2018-Jun-17 23:59N 40°39' W 074°03'0 0.3
2018-Jun-17 23:29N 40°39' W 074°03'0 0.0
2018-Jun-17 22:12N 40°39' W 074°03'0 0.2
2018-Jun-17 22:00N 40°39' W 074°03'0 0.0
2018-Jun-17 21:30N 40°39' W 074°03'0 0.0
2018-Jun-17 20:55N 40°39' W 074°03'0 0.0
2018-Jun-17 20:22N 40°39' W 074°03'0 0.1
2018-Jun-17 16:46N 40°39' W 074°03'0 0.2
2018-Jun-17 16:30N 40°39' W 074°03'2910.1
2018-Jun-17 13:39N 40°19' W 073°35'212.6
2018-Jun-17 13:30N 40°18' W 073°33'612.6
2018-Jun-17 13:01N 40°14' W 073°26'812.7
2018-Jun-17 12:25N 40°10' W 073°18'512.6
2018-Jun-17 12:00N 40°07' W 073°13'  

Dump ship's entire track history